Weather at Bar River Airport

Public forecast

Using degrees Celsius for public forecast. Weather courtesy of forecast.io.

Closest aviation weather report (METAR) to Bar River Airport

Closest report is Sault Ste Marie Municipal Sanderson Field, 12.0 nm (22.2 km) WNW. Retrieved 2021/09/21 14:07 UTC (0 seconds ago):

KANJ 211407Z AUTO 31006G16KT 1 3/4SM RA BR FEW009 BKN032 OVC060 16/14 A2984

Closest aviation forecast (TAF) to Bar River Airport

Closest forecast is Sault Ste Marie Airport, 17.7 nm (32.8 km) WNW. Retrieved 2021/09/21 14:39 UTC (0 seconds ago):

TAF TAF CYAM 211338Z 2114/2202 31012G22KT 21/2SM SHRA BR SCT007 OVC020 TEMPO 2114/2116 P6SM -RA SCT015 OVC025 FM211600 30015G25KT P6SM OVC015 TEMPO 2116/2122 BKN025 FM212200 32012G22KT P6SM BKN025 RMK NXT FCST BY 212000Z